sensor_id;sensor_type;location;lat;lon;timestamp;pressure;altitude;pressure_sealevel;temperature;humidity
39265;BME280;42646;51.910;7.724;2023-05-22T00:00:17;100799.91;;;17.81;100.00
39265;BME280;42646;51.910;7.724;2023-05-22T00:02:44;100801.78;;;17.80;100.00
39265;BME280;42646;51.910;7.724;2023-05-22T00:05:13;100808.19;;;17.79;100.00
39265;BME280;42646;51.910;7.724;2023-05-22T00:07:43;100796.56;;;17.79;100.00
39265;BME280;42646;51.910;7.724;2023-05-22T00:10:11;100790.72;;;17.75;100.00
39265;BME280;42646;51.910;7.724;2023-05-22T00:12:39;100791.72;;;17.74;100.00
39265;BME280;42646;51.910;7.724;2023-05-22T00:15:08;100786.34;;;17.74;100.00
39265;BME280;42646;51.910;7.724;2023-05-22T00:17:38;100785.50;;;17.74;100.00
39265;BME280;42646;51.910;7.724;2023-05-22T00:20:07;100783.97;;;17.71;100.00
39265;BME280;42646;51.910;7.724;2023-05-22T00:22:36;100775.06;;;17.71;100.00
39265;BME280;42646;51.910;7.724;2023-05-22T00:25:05;100782.31;;;17.70;100.00
39265;BME280;42646;51.910;7.724;2023-05-22T00:27:33;100784.16;;;17.70;100.00
39265;BME280;42646;51.910;7.724;2023-05-22T00:30:03;100782.69;;;17.67;100.00
39265;BME280;42646;51.910;7.724;2023-05-22T00:32:30;100771.25;;;17.65;100.00
39265;BME280;42646;51.910;7.724;2023-05-22T00:34:59;100777.66;;;17.64;100.00
39265;BME280;42646;51.910;7.724;2023-05-22T00:37:27;100769.78;;;17.62;100.00
39265;BME280;42646;51.910;7.724;2023-05-22T00:39:55;100771.63;;;17.62;100.00
39265;BME280;42646;51.910;7.724;2023-05-22T00:42:23;100769.97;;;17.61;100.00
39265;BME280;42646;51.910;7.724;2023-05-22T00:44:51;100763.91;;;17.59;100.00
39265;BME280;42646;51.910;7.724;2023-05-22T00:47:18;100766.97;;;17.56;100.00
39265;BME280;42646;51.910;7.724;2023-05-22T00:49:46;100782.94;;;17.57;100.00
39265;BME280;42646;51.910;7.724;2023-05-22T00:52:15;100767.13;;;17.54;100.00
39265;BME280;42646;51.910;7.724;2023-05-22T00:54:44;100763.78;;;17.52;100.00
39265;BME280;42646;51.910;7.724;2023-05-22T00:57:12;100761.94;;;17.53;100.00
39265;BME280;42646;51.910;7.724;2023-05-22T00:59:39;100765.84;;;17.50;100.00
39265;BME280;42646;51.910;7.724;2023-05-22T01:02:07;100766.00;;;17.49;100.00
39265;BME280;42646;51.910;7.724;2023-05-22T01:04:35;100753.56;;;17.48;100.00
39265;BME280;42646;51.910;7.724;2023-05-22T01:07:04;100757.47;;;17.45;100.00
39265;BME280;42646;51.910;7.724;2023-05-22T01:09:33;100756.78;;;17.43;100.00
39265;BME280;42646;51.910;7.724;2023-05-22T01:12:07;100760.50;;;17.42;100.00
39265;BME280;42646;51.910;7.724;2023-05-22T01:14:46;100752.63;;;17.41;100.00
39265;BME280;42646;51.910;7.724;2023-05-22T01:17:18;100754.66;;;17.39;100.00
39265;BME280;42646;51.910;7.724;2023-05-22T01:20:01;100762.06;;;17.36;100.00
39265;BME280;42646;51.910;7.724;2023-05-22T01:23:09;100764.94;;;17.35;100.00
39265;BME280;42646;51.910;7.724;2023-05-22T01:26:06;100765.31;;;17.32;100.00
39265;BME280;42646;51.910;7.724;2023-05-22T01:28:42;100759.44;;;17.28;100.00
39265;BME280;42646;51.910;7.724;2023-05-22T01:31:18;100761.66;;;17.25;100.00
39265;BME280;42646;51.910;7.724;2023-05-22T01:33:53;100767.22;;;17.23;100.00
39265;BME280;42646;51.910;7.724;2023-05-22T01:36:26;100765.53;;;17.22;100.00
39265;BME280;42646;51.910;7.724;2023-05-22T01:38:58;100761.19;;;17.21;100.00
39265;BME280;42646;51.910;7.724;2023-05-22T01:41:28;100760.50;;;17.19;100.00
39265;BME280;42646;51.910;7.724;2023-05-22T01:43:55;100764.59;;;17.15;100.00
39265;BME280;42646;51.910;7.724;2023-05-22T01:46:26;100760.56;;;17.11;100.00
39265;BME280;42646;51.910;7.724;2023-05-22T01:48:55;100765.31;;;17.09;100.00
39265;BME280;42646;51.910;7.724;2023-05-22T01:51:27;100771.69;;;17.08;100.00
39265;BME280;42646;51.910;7.724;2023-05-22T01:54:03;100782.78;;;17.05;100.00
39265;BME280;42646;51.910;7.724;2023-05-22T01:56:40;100781.97;;;17.04;100.00
39265;BME280;42646;51.910;7.724;2023-05-22T01:59:18;100777.09;;;17.00;100.00
39265;BME280;42646;51.910;7.724;2023-05-22T02:01:50;100774.94;;;16.95;100.00
39265;BME280;42646;51.910;7.724;2023-05-22T02:04:20;100782.34;;;16.93;100.00
39265;BME280;42646;51.910;7.724;2023-05-22T02:06:51;100776.47;;;16.90;100.00
39265;BME280;42646;51.910;7.724;2023-05-22T02:09:20;100770.66;;;16.86;100.00
39265;BME280;42646;51.910;7.724;2023-05-22T02:11:50;100765.59;;;16.83;100.00
39265;BME280;42646;51.910;7.724;2023-05-22T02:14:18;100770.34;;;16.81;100.00
39265;BME280;42646;51.910;7.724;2023-05-22T02:16:49;100770.66;;;16.78;100.00
39265;BME280;42646;51.910;7.724;2023-05-22T02:19:17;100770.84;;;16.76;100.00
39265;BME280;42646;51.910;7.724;2023-05-22T02:21:45;100764.81;;;16.74;100.00
39265;BME280;42646;51.910;7.724;2023-05-22T02:24:13;100767.50;;;16.74;100.00
39265;BME280;42646;51.910;7.724;2023-05-22T02:26:41;100762.13;;;16.74;100.00
39265;BME280;42646;51.910;7.724;2023-05-22T02:29:09;100759.44;;;16.74;100.00
39265;BME280;42646;51.910;7.724;2023-05-22T02:31:38;100752.41;;;16.73;100.00
39265;BME280;42646;51.910;7.724;2023-05-22T02:34:07;100741.81;;;16.72;100.00
39265;BME280;42646;51.910;7.724;2023-05-22T02:36:35;100747.38;;;16.70;100.00
39265;BME280;42646;51.910;7.724;2023-05-22T02:39:03;100737.63;;;16.69;100.00
39265;BME280;42646;51.910;7.724;2023-05-22T02:41:31;100732.09;;;16.71;100.00
39265;BME280;42646;51.910;7.724;2023-05-22T02:43:59;100731.25;;;16.70;100.00
39265;BME280;42646;51.910;7.724;2023-05-22T02:46:27;100716.97;;;16.70;100.00
39265;BME280;42646;51.910;7.724;2023-05-22T02:48:55;100723.19;;;16.70;100.00
39265;BME280;42646;51.910;7.724;2023-05-22T02:51:24;100720.19;;;16.73;100.00
39265;BME280;42646;51.910;7.724;2023-05-22T02:53:52;100711.94;;;16.75;100.00
39265;BME280;42646;51.910;7.724;2023-05-22T02:56:20;100710.91;;;16.76;100.00
39265;BME280;42646;51.910;7.724;2023-05-22T02:58:49;100712.75;;;16.75;100.00
39265;BME280;42646;51.910;7.724;2023-05-22T03:01:17;100703.69;;;16.76;100.00
39265;BME280;42646;51.910;7.724;2023-05-22T03:03:44;100705.34;;;16.77;100.00
39265;BME280;42646;51.910;7.724;2023-05-22T03:06:14;100706.19;;;16.78;100.00
39265;BME280;42646;51.910;7.724;2023-05-22T03:08:43;100695.44;;;16.78;100.00
39265;BME280;42646;51.910;7.724;2023-05-22T03:11:10;100699.00;;;16.78;100.00
39265;BME280;42646;51.910;7.724;2023-05-22T03:13:39;100706.19;;;16.78;100.00
39265;BME280;42646;51.910;7.724;2023-05-22T03:16:06;100714.25;;;16.78;100.00
39265;BME280;42646;51.910;7.724;2023-05-22T03:18:38;100721.47;;;16.77;100.00
39265;BME280;42646;51.910;7.724;2023-05-22T03:21:06;100724.34;;;16.76;100.00
39265;BME280;42646;51.910;7.724;2023-05-22T03:23:34;100733.91;;;16.78;100.00
39265;BME280;42646;51.910;7.724;2023-05-22T03:26:03;100740.97;;;16.79;100.00
39265;BME280;42646;51.910;7.724;2023-05-22T03:28:34;100734.06;;;16.77;100.00
39265;BME280;42646;51.910;7.724;2023-05-22T03:31:02;100741.28;;;16.76;100.00
39265;BME280;42646;51.910;7.724;2023-05-22T03:33:38;100735.28;;;16.74;100.00
39265;BME280;42646;51.910;7.724;2023-05-22T03:36:06;100731.06;;;16.72;100.00
39265;BME280;42646;51.910;7.724;2023-05-22T03:38:35;100732.25;;;16.69;100.00
39265;BME280;42646;51.910;7.724;2023-05-22T03:41:04;100729.94;;;16.66;100.00
39265;BME280;42646;51.910;7.724;2023-05-22T03:43:33;100735.44;;;16.65;100.00
39265;BME280;42646;51.910;7.724;2023-05-22T03:46:01;100736.66;;;16.62;100.00
39265;BME280;42646;51.910;7.724;2023-05-22T03:48:28;100725.41;;;16.59;100.00
39265;BME280;42646;51.910;7.724;2023-05-22T03:50:56;100730.97;;;16.57;100.00
39265;BME280;42646;51.910;7.724;2023-05-22T03:53:24;100738.53;;;16.53;100.00
39265;BME280;42646;51.910;7.724;2023-05-22T03:55:52;100738.53;;;16.53;100.00
39265;BME280;42646;51.910;7.724;2023-05-22T03:58:21;100728.16;;;16.50;100.00
39265;BME280;42646;51.910;7.724;2023-05-22T04:00:51;100737.22;;;16.49;100.00
39265;BME280;42646;51.910;7.724;2023-05-22T04:03:19;100734.69;;;16.48;100.00
39265;BME280;42646;51.910;7.724;2023-05-22T04:05:47;100728.66;;;16.46;100.00
39265;BME280;42646;51.910;7.724;2023-05-22T04:08:14;100725.31;;;16.44;100.00
39265;BME280;42646;51.910;7.724;2023-05-22T04:10:42;100727.31;;;16.42;100.00
39265;BME280;42646;51.910;7.724;2023-05-22T04:13:12;100718.63;;;16.40;100.00
39265;BME280;42646;51.910;7.724;2023-05-22T04:15:41;100719.00;;;16.37;100.00
39265;BME280;42646;51.910;7.724;2023-05-22T04:18:12;100716.44;;;16.35;100.00
39265;BME280;42646;51.910;7.724;2023-05-22T04:20:40;100716.44;;;16.35;100.00
39265;BME280;42646;51.910;7.724;2023-05-22T04:23:08;100716.63;;;16.34;100.00
39265;BME280;42646;51.910;7.724;2023-05-22T04:25:36;100718.50;;;16.33;100.00
39265;BME280;42646;51.910;7.724;2023-05-22T04:28:04;100717.84;;;16.31;100.00
39265;BME280;42646;51.910;7.724;2023-05-22T04:30:31;100724.19;;;16.30;100.00
39265;BME280;42646;51.910;7.724;2023-05-22T04:33:01;100717.34;;;16.27;100.00
39265;BME280;42646;51.910;7.724;2023-05-22T04:35:30;100721.88;;;16.27;100.00
39265;BME280;42646;51.910;7.724;2023-05-22T04:37:59;100716.00;;;16.23;100.00
39265;BME280;42646;51.910;7.724;2023-05-22T04:40:27;100711.66;;;16.22;100.00
39265;BME280;42646;51.910;7.724;2023-05-22T04:42:55;100714.69;;;16.19;100.00
39265;BME280;42646;51.910;7.724;2023-05-22T04:45:25;100709.47;;;16.18;100.00
39265;BME280;42646;51.910;7.724;2023-05-22T04:47:56;100712.16;;;16.18;100.00
39265;BME280;42646;51.910;7.724;2023-05-22T04:50:26;100713.19;;;16.17;100.00
39265;BME280;42646;51.910;7.724;2023-05-22T04:52:55;100712.34;;;16.16;100.00
39265;BME280;42646;51.910;7.724;2023-05-22T04:55:25;100710.66;;;16.15;100.00
39265;BME280;42646;51.910;7.724;2023-05-22T04:57:52;100707.16;;;16.15;100.00
39265;BME280;42646;51.910;7.724;2023-05-22T05:00:22;100707.16;;;16.15;100.00
39265;BME280;42646;51.910;7.724;2023-05-22T05:02:52;100700.94;;;16.14;100.00
39265;BME280;42646;51.910;7.724;2023-05-22T05:05:20;100697.44;;;16.14;100.00
39265;BME280;42646;51.910;7.724;2023-05-22T05:07:49;100700.13;;;16.14;100.00
39265;BME280;42646;51.910;7.724;2023-05-22T05:10:18;100693.03;;;16.13;100.00
39265;BME280;42646;51.910;7.724;2023-05-22T05:12:45;100693.03;;;16.13;100.00
39265;BME280;42646;51.910;7.724;2023-05-22T05:15:13;100694.75;;;16.14;100.00
39265;BME280;42646;51.910;7.724;2023-05-22T05:17:41;100695.72;;;16.13;100.00
39265;BME280;42646;51.910;7.724;2023-05-22T05:20:10;100692.91;;;16.14;100.00
39265;BME280;42646;51.910;7.724;2023-05-22T05:22:39;100685.69;;;16.15;100.00
39265;BME280;42646;51.910;7.724;2023-05-22T05:25:12;100696.22;;;16.16;100.00
39265;BME280;42646;51.910;7.724;2023-05-22T05:27:39;100694.19;;;16.18;100.00
39265;BME280;42646;51.910;7.724;2023-05-22T05:30:08;100692.03;;;16.22;100.00
39265;BME280;42646;51.910;7.724;2023-05-22T05:32:56;100694.53;;;16.23;100.00
39265;BME280;42646;51.910;7.724;2023-05-22T05:35:34;100699.38;;;16.28;100.00
39265;BME280;42646;51.910;7.724;2023-05-22T05:38:07;100702.72;;;16.30;100.00
39265;BME280;42646;51.910;7.724;2023-05-22T05:40:38;100700.53;;;16.34;100.00
39265;BME280;42646;51.910;7.724;2023-05-22T05:43:08;100707.88;;;16.40;100.00
39265;BME280;42646;51.910;7.724;2023-05-22T05:45:37;100704.69;;;16.44;100.00
39265;BME280;42646;51.910;7.724;2023-05-22T05:48:05;100706.84;;;16.49;100.00
39265;BME280;42646;51.910;7.724;2023-05-22T05:50:36;100711.66;;;16.53;100.00
39265;BME280;42646;51.910;7.724;2023-05-22T05:53:05;100714.66;;;16.59;100.00
39265;BME280;42646;51.910;7.724;2023-05-22T05:55:33;100729.25;;;16.64;100.00
39265;BME280;42646;51.910;7.724;2023-05-22T05:58:03;100726.03;;;16.69;100.00
39265;BME280;42646;51.910;7.724;2023-05-22T06:00:46;100724.53;;;16.74;100.00
39265;BME280;42646;51.910;7.724;2023-05-22T06:03:14;100721.13;;;16.80;100.00
39265;BME280;42646;51.910;7.724;2023-05-22T06:05:49;100724.78;;;16.88;100.00
39265;BME280;42646;51.910;7.724;2023-05-22T06:08:40;100723.72;;;16.97;100.00
39265;BME280;42646;51.910;7.724;2023-05-22T06:11:08;100723.84;;;17.03;100.00
39265;BME280;42646;51.910;7.724;2023-05-22T06:13:48;100723.97;;;17.10;100.00
39265;BME280;42646;51.910;7.724;2023-05-22T06:16:16;100725.94;;;17.16;100.00
39265;BME280;42646;51.910;7.724;2023-05-22T06:18:43;100727.91;;;17.22;100.00
39265;BME280;42646;51.910;7.724;2023-05-22T06:21:12;100727.19;;;17.28;100.00
39265;BME280;42646;51.910;7.724;2023-05-22T06:23:39;100725.63;;;17.34;100.00
39265;BME280;42646;51.910;7.724;2023-05-22T06:26:07;100725.09;;;17.39;100.00
39265;BME280;42646;51.910;7.724;2023-05-22T06:28:38;100728.72;;;17.46;100.00
39265;BME280;42646;51.910;7.724;2023-05-22T06:31:07;100732.53;;;17.51;100.00
39265;BME280;42646;51.910;7.724;2023-05-22T06:33:36;100729.75;;;17.59;100.00
39265;BME280;42646;51.910;7.724;2023-05-22T06:36:06;100731.91;;;17.64;100.00
39265;BME280;42646;51.910;7.724;2023-05-22T06:38:34;100736.56;;;17.70;100.00
39265;BME280;42646;51.910;7.724;2023-05-22T06:41:04;100736.06;;;17.75;100.00
39265;BME280;42646;51.910;7.724;2023-05-22T06:43:31;100729.09;;;17.80;100.00
39265;BME280;42646;51.910;7.724;2023-05-22T06:46:12;100732.91;;;17.86;100.00
39265;BME280;42646;51.910;7.724;2023-05-22T06:48:48;100736.72;;;17.92;100.00
39265;BME280;42646;51.910;7.724;2023-05-22T06:51:23;100730.78;;;17.96;100.00
39265;BME280;42646;51.910;7.724;2023-05-22T06:53:56;100736.28;;;18.03;100.00
39265;BME280;42646;51.910;7.724;2023-05-22T06:56:29;100733.00;;;18.07;100.00
39265;BME280;42646;51.910;7.724;2023-05-22T06:59:09;100733.78;;;18.16;100.00
39265;BME280;42646;51.910;7.724;2023-05-22T07:02:01;100727.44;;;18.24;100.00
39265;BME280;42646;51.910;7.724;2023-05-22T07:04:45;100734.56;;;18.31;100.00
39265;BME280;42646;51.910;7.724;2023-05-22T07:07:18;100731.13;;;18.37;100.00
39265;BME280;42646;51.910;7.724;2023-05-22T07:09:46;100734.78;;;18.45;100.00
39265;BME280;42646;51.910;7.724;2023-05-22T07:12:14;100730.31;;;18.52;100.00
39265;BME280;42646;51.910;7.724;2023-05-22T07:14:43;100730.38;;;18.58;100.00
39265;BME280;42646;51.910;7.724;2023-05-22T07:17:13;100734.81;;;18.66;100.00
39265;BME280;42646;51.910;7.724;2023-05-22T07:19:43;100733.06;;;18.73;100.00
39265;BME280;42646;51.910;7.724;2023-05-22T07:22:12;100739.38;;;18.80;100.00
39265;BME280;42646;51.910;7.724;2023-05-22T07:24:41;100736.75;;;18.87;100.00
39265;BME280;42646;51.910;7.724;2023-05-22T07:27:09;100744.53;;;18.97;100.00
39265;BME280;42646;51.910;7.724;2023-05-22T07:29:38;100742.34;;;19.07;100.00
39265;BME280;42646;51.910;7.724;2023-05-22T07:32:07;100736.81;;;19.15;100.00
39265;BME280;42646;51.910;7.724;2023-05-22T07:34:37;100747.72;;;19.21;100.00
39265;BME280;42646;51.910;7.724;2023-05-22T07:37:07;100745.06;;;19.28;100.00
39265;BME280;42646;51.910;7.724;2023-05-22T07:39:36;100737.25;;;19.33;100.00
39265;BME280;42646;51.910;7.724;2023-05-22T07:42:06;100743.06;;;19.37;100.00
39265;BME280;42646;51.910;7.724;2023-05-22T07:44:40;100744.16;;;19.42;100.00
39265;BME280;42646;51.910;7.724;2023-05-22T07:47:07;100750.84;;;19.46;100.00
39265;BME280;42646;51.910;7.724;2023-05-22T07:49:36;100750.25;;;19.51;100.00
39265;BME280;42646;51.910;7.724;2023-05-22T07:52:05;100743.63;;;19.54;100.00
39265;BME280;42646;51.910;7.724;2023-05-22T07:54:33;100749.50;;;19.57;100.00
39265;BME280;42646;51.910;7.724;2023-05-22T07:57:01;100748.28;;;19.60;100.00
39265;BME280;42646;51.910;7.724;2023-05-22T07:59:34;100750.19;;;19.66;100.00
39265;BME280;42646;51.910;7.724;2023-05-22T08:02:03;100747.75;;;19.71;100.00
39265;BME280;42646;51.910;7.724;2023-05-22T08:04:31;100752.16;;;19.79;100.00
39265;BME280;42646;51.910;7.724;2023-05-22T08:07:00;100751.81;;;19.88;100.00
39265;BME280;42646;51.910;7.724;2023-05-22T08:09:28;100759.56;;;19.98;100.00
39265;BME280;42646;51.910;7.724;2023-05-22T08:11:56;100763.78;;;20.07;100.00
39265;BME280;42646;51.910;7.724;2023-05-22T08:14:24;100752.41;;;20.12;100.00
39265;BME280;42646;51.910;7.724;2023-05-22T08:16:51;100754.69;;;20.15;100.00
39265;BME280;42646;51.910;7.724;2023-05-22T08:19:19;100754.31;;;20.18;100.00
39265;BME280;42646;51.910;7.724;2023-05-22T08:21:47;100758.50;;;20.27;100.00
39265;BME280;42646;51.910;7.724;2023-05-22T08:24:16;100755.00;;;20.33;100.00
39265;BME280;42646;51.910;7.724;2023-05-22T08:26:44;100758.38;;;20.42;100.00
39265;BME280;42646;51.910;7.724;2023-05-22T08:29:11;100763.03;;;20.48;100.00
39265;BME280;42646;51.910;7.724;2023-05-22T08:31:39;100766.59;;;20.55;100.00
39265;BME280;42646;51.910;7.724;2023-05-22T08:34:07;100763.91;;;20.62;100.00
39265;BME280;42646;51.910;7.724;2023-05-22T08:36:35;100764.75;;;20.69;100.00
39265;BME280;42646;51.910;7.724;2023-05-22T08:39:03;100757.94;;;20.73;100.00
39265;BME280;42646;51.910;7.724;2023-05-22T08:41:34;100755.03;;;20.81;100.00
39265;BME280;42646;51.910;7.724;2023-05-22T08:44:01;100761.31;;;20.88;100.00
39265;BME280;42646;51.910;7.724;2023-05-22T08:46:29;100758.22;;;20.98;100.00
39265;BME280;42646;51.910;7.724;2023-05-22T08:49:03;100752.41;;;21.07;100.00
39265;BME280;42646;51.910;7.724;2023-05-22T08:51:32;100760.97;;;21.18;100.00
39265;BME280;42646;51.910;7.724;2023-05-22T08:54:04;100757.00;;;21.20;98.82
39265;BME280;42646;51.910;7.724;2023-05-22T08:56:34;100761.00;;;21.24;98.89
39265;BME280;42646;51.910;7.724;2023-05-22T08:59:11;100756.44;;;21.31;99.74
39265;BME280;42646;51.910;7.724;2023-05-22T09:01:39;100766.22;;;21.39;100.00
39265;BME280;42646;51.910;7.724;2023-05-22T09:04:07;100760.81;;;21.46;100.00
39265;BME280;42646;51.910;7.724;2023-05-22T09:06:34;100746.88;;;21.49;98.98
39265;BME280;42646;51.910;7.724;2023-05-22T09:09:03;100755.63;;;21.51;98.16
39265;BME280;42646;51.910;7.724;2023-05-22T09:11:31;100751.03;;;21.58;98.64
39265;BME280;42646;51.910;7.724;2023-05-22T09:14:09;100754.78;;;21.64;98.05
39265;BME280;42646;51.910;7.724;2023-05-22T09:16:44;100754.38;;;21.67;96.25
39265;BME280;42646;51.910;7.724;2023-05-22T09:19:13;100756.88;;;21.75;96.88
39265;BME280;42646;51.910;7.724;2023-05-22T09:21:41;100751.06;;;21.78;95.23
39265;BME280;42646;51.910;7.724;2023-05-22T09:24:11;100750.84;;;21.79;94.60
39265;BME280;42646;51.910;7.724;2023-05-22T09:26:38;100751.25;;;21.83;93.46
39265;BME280;42646;51.910;7.724;2023-05-22T09:29:06;100746.88;;;21.89;93.65
39265;BME280;42646;51.910;7.724;2023-05-22T09:31:39;100740.81;;;21.93;92.94
39265;BME280;42646;51.910;7.724;2023-05-22T09:34:09;100748.72;;;22.01;92.82
39265;BME280;42646;51.910;7.724;2023-05-22T09:36:39;100734.34;;;22.07;91.11
39265;BME280;42646;51.910;7.724;2023-05-22T09:39:08;100737.69;;;22.09;88.70
39265;BME280;42646;51.910;7.724;2023-05-22T09:41:37;100738.09;;;22.13;89.12
39265;BME280;42646;51.910;7.724;2023-05-22T09:44:12;100732.25;;;22.16;87.41
39265;BME280;42646;51.910;7.724;2023-05-22T09:46:43;100738.91;;;22.20;87.59
39265;BME280;42646;51.910;7.724;2023-05-22T09:49:11;100731.22;;;22.24;87.60
39265;BME280;42646;51.910;7.724;2023-05-22T09:51:44;100735.78;;;22.30;88.06
39265;BME280;42646;51.910;7.724;2023-05-22T09:54:14;100743.88;;;22.36;88.17
39265;BME280;42646;51.910;7.724;2023-05-22T09:56:43;100743.63;;;22.45;87.71
39265;BME280;42646;51.910;7.724;2023-05-22T09:59:18;100736.75;;;22.49;86.33
39265;BME280;42646;51.910;7.724;2023-05-22T10:01:49;100740.50;;;22.48;85.25
39265;BME280;42646;51.910;7.724;2023-05-22T10:04:17;100738.59;;;22.55;87.10
39265;BME280;42646;51.910;7.724;2023-05-22T10:06:49;100738.34;;;22.63;87.70
39265;BME280;42646;51.910;7.724;2023-05-22T10:09:20;100747.09;;;22.72;87.91
39265;BME280;42646;51.910;7.724;2023-05-22T10:11:49;100747.66;;;22.80;87.71
39265;BME280;42646;51.910;7.724;2023-05-22T10:14:20;100740.34;;;22.87;87.48
39265;BME280;42646;51.910;7.724;2023-05-22T10:16:50;100746.78;;;22.93;86.76
39265;BME280;42646;51.910;7.724;2023-05-22T10:19:17;100743.41;;;22.98;85.16
39265;BME280;42646;51.910;7.724;2023-05-22T10:21:47;100743.81;;;23.01;85.35
39265;BME280;42646;51.910;7.724;2023-05-22T10:24:15;100742.56;;;23.04;85.17
39265;BME280;42646;51.910;7.724;2023-05-22T10:26:43;100746.69;;;23.06;85.13
39265;BME280;42646;51.910;7.724;2023-05-22T10:29:14;100740.63;;;23.11;85.76
39265;BME280;42646;51.910;7.724;2023-05-22T10:31:53;100736.59;;;23.20;87.54
39265;BME280;42646;51.910;7.724;2023-05-22T10:34:35;100745.28;;;23.29;87.25
39265;BME280;42646;51.910;7.724;2023-05-22T10:37:16;100733.56;;;23.35;83.65
39265;BME280;42646;51.910;7.724;2023-05-22T10:39:53;100735.22;;;23.36;81.80
39265;BME280;42646;51.910;7.724;2023-05-22T10:42:28;100732.06;;;23.39;81.95
39265;BME280;42646;51.910;7.724;2023-05-22T10:44:59;100720.94;;;23.47;82.66
39265;BME280;42646;51.910;7.724;2023-05-22T10:47:31;100722.75;;;23.53;82.62
39265;BME280;42646;51.910;7.724;2023-05-22T10:50:05;100715.66;;;23.52;78.67
39265;BME280;42646;51.910;7.724;2023-05-22T10:52:33;100723.38;;;23.55;76.88
39265;BME280;42646;51.910;7.724;2023-05-22T10:55:05;100719.44;;;23.51;75.91
39265;BME280;42646;51.910;7.724;2023-05-22T10:57:32;100717.78;;;23.50;75.91
39265;BME280;42646;51.910;7.724;2023-05-22T11:00:09;100717.78;;;23.50;77.59
39265;BME280;42646;51.910;7.724;2023-05-22T11:02:40;100730.47;;;23.56;77.00
39265;BME280;42646;51.910;7.724;2023-05-22T11:05:32;100716.44;;;23.59;75.82
39265;BME280;42646;51.910;7.724;2023-05-22T11:08:33;100725.53;;;23.71;76.14
39265;BME280;42646;51.910;7.724;2023-05-22T11:11:10;100733.88;;;23.77;74.56
39265;BME280;42646;51.910;7.724;2023-05-22T11:13:38;100721.28;;;23.82;75.01
39265;BME280;42646;51.910;7.724;2023-05-22T11:16:08;100722.03;;;23.89;74.51
39265;BME280;42646;51.910;7.724;2023-05-22T11:18:38;100721.75;;;23.97;74.76
39265;BME280;42646;51.910;7.724;2023-05-22T11:21:08;100718.75;;;24.06;74.72
39265;BME280;42646;51.910;7.724;2023-05-22T11:23:37;100713.03;;;24.14;75.82
39265;BME280;42646;51.910;7.724;2023-05-22T11:26:20;100713.09;;;24.25;76.22
39265;BME280;42646;51.910;7.724;2023-05-22T11:28:53;100716.34;;;24.34;76.46
39265;BME280;42646;51.910;7.724;2023-05-22T11:31:21;100704.81;;;24.39;75.16
39265;BME280;42646;51.910;7.724;2023-05-22T11:33:52;100707.44;;;24.45;75.34
39265;BME280;42646;51.910;7.724;2023-05-22T11:36:20;100700.50;;;24.49;74.72
39265;BME280;42646;51.910;7.724;2023-05-22T11:38:48;100705.59;;;24.58;76.37
39265;BME280;42646;51.910;7.724;2023-05-22T11:41:16;100699.41;;;24.69;77.45
39265;BME280;42646;51.910;7.724;2023-05-22T11:43:44;100697.88;;;24.73;73.51
39265;BME280;42646;51.910;7.724;2023-05-22T11:46:12;100691.03;;;24.82;74.55
39265;BME280;42646;51.910;7.724;2023-05-22T11:48:40;100694.50;;;24.89;75.03
39265;BME280;42646;51.910;7.724;2023-05-22T11:51:10;100696.13;;;24.90;72.60
39265;BME280;42646;51.910;7.724;2023-05-22T11:53:37;100699.09;;;24.89;72.50
39265;BME280;42646;51.910;7.724;2023-05-22T11:56:05;100697.69;;;24.86;71.27
39265;BME280;42646;51.910;7.724;2023-05-22T11:58:33;100690.81;;;24.84;70.91
39265;BME280;42646;51.910;7.724;2023-05-22T12:01:01;100687.03;;;24.85;70.89
39265;BME280;42646;51.910;7.724;2023-05-22T12:03:30;100684.78;;;24.82;70.89
39265;BME280;42646;51.910;7.724;2023-05-22T12:06:00;100681.13;;;24.88;72.30
39265;BME280;42646;51.910;7.724;2023-05-22T12:08:29;100693.81;;;24.94;71.95
39265;BME280;42646;51.910;7.724;2023-05-22T12:10:57;100687.44;;;25.00;70.76
39265;BME280;42646;51.910;7.724;2023-05-22T12:13:27;100681.16;;;24.99;70.39
39265;BME280;42646;51.910;7.724;2023-05-22T12:15:56;100687.97;;;25.09;70.11
39265;BME280;42646;51.910;7.724;2023-05-22T12:18:26;100687.19;;;25.01;66.45
39265;BME280;42646;51.910;7.724;2023-05-22T12:20:54;100682.22;;;24.98;66.38
39265;BME280;42646;51.910;7.724;2023-05-22T12:23:23;100685.28;;;25.02;67.35
39265;BME280;42646;51.910;7.724;2023-05-22T12:25:58;100685.59;;;25.12;69.28
39265;BME280;42646;51.910;7.724;2023-05-22T12:28:27;100685.47;;;25.19;69.20
39265;BME280;42646;51.910;7.724;2023-05-22T12:30:55;100688.09;;;25.25;68.82
39265;BME280;42646;51.910;7.724;2023-05-22T12:33:26;100685.84;;;25.22;67.35
39265;BME280;42646;51.910;7.724;2023-05-22T12:35:54;100683.13;;;25.22;67.61
39265;BME280;42646;51.910;7.724;2023-05-22T12:38:25;100688.47;;;25.29;68.17
39265;BME280;42646;51.910;7.724;2023-05-22T12:40:54;100682.91;;;25.36;67.09
39265;BME280;42646;51.910;7.724;2023-05-22T12:43:23;100678.28;;;25.36;65.81
39265;BME280;42646;51.910;7.724;2023-05-22T12:45:52;100678.41;;;25.41;66.05
39265;BME280;42646;51.910;7.724;2023-05-22T12:48:21;100686.59;;;25.41;65.33
39265;BME280;42646;51.910;7.724;2023-05-22T12:50:49;100687.78;;;25.45;66.78
39265;BME280;42646;51.910;7.724;2023-05-22T12:53:16;100684.94;;;25.52;66.66
39265;BME280;42646;51.910;7.724;2023-05-22T12:55:44;100687.09;;;25.62;67.31
39265;BME280;42646;51.910;7.724;2023-05-22T12:58:12;100679.00;;;25.67;65.32